Larrabee, Iowa
Current Conditions -  °F | °C
As of 11:35 AM on Saturday 25 Oct 2014 (Local Time) from KCKP Reporting Station
Clear Clear  
Wind Chill: 61°   Ceiling: Unl
Heat Index: 61°   Visibility: 10mi
Dew Point: 41°   Wind: 7mph
Humidity: 47%   Direction: 30°NNE
Pressure: 30.14"   Gusts: NA
Location:  42.86°N, 95.55°W
Report Text: KCKP 251635Z AUTO 03006KT 10SM CLR 16/05 A3014 RMK AO2 T01610048
Loading
Personal Weather Stations






























Interactive Weather Map
Tropical Storm Tracking
New forecast layout! Learn more

10-Day Weather Forecast

Advertisements
Track Severe Weather on mobile